sensor_id;sensor_type;location;lat;lon;timestamp;P1;durP1;ratioP1;P2;durP2;ratioP2
19358;SDS011;9815;52.334;20.890;2022-07-23T00:01:01;20.03;;;12.03;;
19358;SDS011;9815;52.334;20.890;2022-07-23T00:03:31;15.53;;;10.90;;
19358;SDS011;9815;52.334;20.890;2022-07-23T00:06:00;22.67;;;12.57;;
19358;SDS011;9815;52.334;20.890;2022-07-23T00:08:28;18.63;;;12.23;;
19358;SDS011;9815;52.334;20.890;2022-07-23T00:10:56;19.53;;;12.50;;
19358;SDS011;9815;52.334;20.890;2022-07-23T00:13:24;18.57;;;12.20;;
19358;SDS011;9815;52.334;20.890;2022-07-23T00:15:52;16.80;;;11.67;;
19358;SDS011;9815;52.334;20.890;2022-07-23T00:18:21;17.60;;;12.03;;
19358;SDS011;9815;52.334;20.890;2022-07-23T00:20:53;16.53;;;11.67;;
19358;SDS011;9815;52.334;20.890;2022-07-23T00:23:21;16.23;;;11.80;;
19358;SDS011;9815;52.334;20.890;2022-07-23T00:25:51;16.27;;;12.10;;
19358;SDS011;9815;52.334;20.890;2022-07-23T00:28:19;15.40;;;11.43;;
19358;SDS011;9815;52.334;20.890;2022-07-23T00:30:47;17.20;;;11.53;;
19358;SDS011;9815;52.334;20.890;2022-07-23T00:33:16;14.63;;;11.97;;
19358;SDS011;9815;52.334;20.890;2022-07-23T00:35:44;17.37;;;11.63;;
19358;SDS011;9815;52.334;20.890;2022-07-23T00:38:14;17.80;;;11.23;;
19358;SDS011;9815;52.334;20.890;2022-07-23T00:40:42;16.10;;;11.30;;
19358;SDS011;9815;52.334;20.890;2022-07-23T00:43:10;18.13;;;12.13;;
19358;SDS011;9815;52.334;20.890;2022-07-23T00:45:38;17.57;;;11.97;;
19358;SDS011;9815;52.334;20.890;2022-07-23T00:48:07;16.93;;;12.13;;
19358;SDS011;9815;52.334;20.890;2022-07-23T00:50:36;18.00;;;11.77;;
19358;SDS011;9815;52.334;20.890;2022-07-23T00:53:04;21.37;;;10.97;;
19358;SDS011;9815;52.334;20.890;2022-07-23T00:55:34;14.87;;;11.43;;
19358;SDS011;9815;52.334;20.890;2022-07-23T00:58:02;14.43;;;10.57;;
19358;SDS011;9815;52.334;20.890;2022-07-23T01:00:31;17.70;;;11.33;;
19358;SDS011;9815;52.334;20.890;2022-07-23T01:02:59;16.40;;;10.80;;
19358;SDS011;9815;52.334;20.890;2022-07-23T01:05:27;15.57;;;11.03;;
19358;SDS011;9815;52.334;20.890;2022-07-23T01:07:55;15.93;;;10.97;;
19358;SDS011;9815;52.334;20.890;2022-07-23T01:10:24;16.30;;;11.33;;
19358;SDS011;9815;52.334;20.890;2022-07-23T01:13:00;17.90;;;11.23;;
19358;SDS011;9815;52.334;20.890;2022-07-23T01:15:29;17.73;;;11.60;;
19358;SDS011;9815;52.334;20.890;2022-07-23T01:17:57;16.70;;;12.10;;
19358;SDS011;9815;52.334;20.890;2022-07-23T01:20:26;21.73;;;12.43;;
19358;SDS011;9815;52.334;20.890;2022-07-23T01:22:56;17.40;;;12.07;;
19358;SDS011;9815;52.334;20.890;2022-07-23T01:25:25;15.53;;;11.70;;
19358;SDS011;9815;52.334;20.890;2022-07-23T01:27:57;20.13;;;11.63;;
19358;SDS011;9815;52.334;20.890;2022-07-23T01:30:26;19.37;;;13.20;;
19358;SDS011;9815;52.334;20.890;2022-07-23T01:32:56;16.10;;;12.40;;
19358;SDS011;9815;52.334;20.890;2022-07-23T01:35:24;21.07;;;13.83;;
19358;SDS011;9815;52.334;20.890;2022-07-23T01:37:58;22.60;;;14.13;;
19358;SDS011;9815;52.334;20.890;2022-07-23T01:40:27;20.03;;;13.63;;
19358;SDS011;9815;52.334;20.890;2022-07-23T01:42:56;29.00;;;14.13;;
19358;SDS011;9815;52.334;20.890;2022-07-23T01:45:26;18.53;;;13.20;;
19358;SDS011;9815;52.334;20.890;2022-07-23T01:47:55;23.57;;;13.27;;
19358;SDS011;9815;52.334;20.890;2022-07-23T01:50:23;20.23;;;13.87;;
19358;SDS011;9815;52.334;20.890;2022-07-23T01:53:08;18.83;;;13.93;;
19358;SDS011;9815;52.334;20.890;2022-07-23T01:55:36;21.93;;;14.83;;
19358;SDS011;9815;52.334;20.890;2022-07-23T01:58:06;22.13;;;14.63;;
19358;SDS011;9815;52.334;20.890;2022-07-23T02:00:35;21.70;;;14.13;;
19358;SDS011;9815;52.334;20.890;2022-07-23T02:03:03;19.73;;;13.73;;
19358;SDS011;9815;52.334;20.890;2022-07-23T02:05:36;25.70;;;14.47;;
19358;SDS011;9815;52.334;20.890;2022-07-23T02:08:04;24.07;;;14.53;;
19358;SDS011;9815;52.334;20.890;2022-07-23T02:10:36;21.07;;;13.77;;
19358;SDS011;9815;52.334;20.890;2022-07-23T02:13:05;22.10;;;14.07;;
19358;SDS011;9815;52.334;20.890;2022-07-23T02:15:33;21.37;;;13.43;;
19358;SDS011;9815;52.334;20.890;2022-07-23T02:18:02;19.27;;;14.20;;
19358;SDS011;9815;52.334;20.890;2022-07-23T02:20:31;19.00;;;13.47;;
19358;SDS011;9815;52.334;20.890;2022-07-23T02:22:59;18.97;;;13.53;;
19358;SDS011;9815;52.334;20.890;2022-07-23T02:25:28;17.53;;;13.03;;
19358;SDS011;9815;52.334;20.890;2022-07-23T02:28:01;20.60;;;13.37;;
19358;SDS011;9815;52.334;20.890;2022-07-23T02:30:30;19.30;;;14.00;;
19358;SDS011;9815;52.334;20.890;2022-07-23T02:32:59;21.90;;;14.40;;
19358;SDS011;9815;52.334;20.890;2022-07-23T02:35:27;20.43;;;14.87;;
19358;SDS011;9815;52.334;20.890;2022-07-23T02:37:58;19.67;;;13.63;;
19358;SDS011;9815;52.334;20.890;2022-07-23T02:40:28;22.03;;;14.80;;
19358;SDS011;9815;52.334;20.890;2022-07-23T02:42:57;24.67;;;15.73;;
19358;SDS011;9815;52.334;20.890;2022-07-23T02:45:26;23.80;;;14.60;;
19358;SDS011;9815;52.334;20.890;2022-07-23T02:47:55;24.33;;;14.93;;
19358;SDS011;9815;52.334;20.890;2022-07-23T02:50:23;20.80;;;14.30;;
19358;SDS011;9815;52.334;20.890;2022-07-23T02:52:55;23.63;;;14.33;;
19358;SDS011;9815;52.334;20.890;2022-07-23T02:55:24;21.97;;;15.20;;
19358;SDS011;9815;52.334;20.890;2022-07-23T02:57:53;25.53;;;15.17;;
19358;SDS011;9815;52.334;20.890;2022-07-23T03:00:22;21.07;;;13.77;;
19358;SDS011;9815;52.334;20.890;2022-07-23T03:02:53;25.27;;;14.77;;
19358;SDS011;9815;52.334;20.890;2022-07-23T03:05:21;28.07;;;15.63;;
19358;SDS011;9815;52.334;20.890;2022-07-23T03:07:49;24.80;;;14.60;;
19358;SDS011;9815;52.334;20.890;2022-07-23T03:10:19;21.20;;;14.40;;
19358;SDS011;9815;52.334;20.890;2022-07-23T03:12:47;23.97;;;14.23;;
19358;SDS011;9815;52.334;20.890;2022-07-23T03:15:16;22.63;;;15.37;;
19358;SDS011;9815;52.334;20.890;2022-07-23T03:17:45;21.77;;;14.77;;
19358;SDS011;9815;52.334;20.890;2022-07-23T03:20:14;23.97;;;15.40;;
19358;SDS011;9815;52.334;20.890;2022-07-23T03:22:42;25.27;;;15.97;;
19358;SDS011;9815;52.334;20.890;2022-07-23T03:25:11;23.33;;;15.50;;
19358;SDS011;9815;52.334;20.890;2022-07-23T03:27:39;22.73;;;14.93;;
19358;SDS011;9815;52.334;20.890;2022-07-23T03:30:08;22.47;;;15.60;;
19358;SDS011;9815;52.334;20.890;2022-07-23T03:32:38;24.17;;;14.93;;
19358;SDS011;9815;52.334;20.890;2022-07-23T03:35:06;23.20;;;15.43;;
19358;SDS011;9815;52.334;20.890;2022-07-23T03:37:42;22.77;;;14.97;;
19358;SDS011;9815;52.334;20.890;2022-07-23T03:40:12;24.40;;;15.93;;
19358;SDS011;9815;52.334;20.890;2022-07-23T03:42:40;25.67;;;15.80;;
19358;SDS011;9815;52.334;20.890;2022-07-23T03:45:09;21.07;;;15.90;;
19358;SDS011;9815;52.334;20.890;2022-07-23T03:47:38;23.57;;;15.30;;
19358;SDS011;9815;52.334;20.890;2022-07-23T03:50:06;29.80;;;16.63;;
19358;SDS011;9815;52.334;20.890;2022-07-23T03:52:35;23.67;;;14.77;;
19358;SDS011;9815;52.334;20.890;2022-07-23T03:55:06;23.50;;;15.60;;
19358;SDS011;9815;52.334;20.890;2022-07-23T03:57:35;23.47;;;14.93;;
19358;SDS011;9815;52.334;20.890;2022-07-23T04:00:04;22.57;;;15.27;;
19358;SDS011;9815;52.334;20.890;2022-07-23T04:02:43;23.37;;;15.50;;
19358;SDS011;9815;52.334;20.890;2022-07-23T04:05:11;21.77;;;14.80;;
19358;SDS011;9815;52.334;20.890;2022-07-23T04:07:42;22.27;;;15.23;;
19358;SDS011;9815;52.334;20.890;2022-07-23T04:10:12;22.50;;;14.93;;
19358;SDS011;9815;52.334;20.890;2022-07-23T04:12:40;22.20;;;14.93;;
19358;SDS011;9815;52.334;20.890;2022-07-23T04:15:09;21.27;;;14.80;;
19358;SDS011;9815;52.334;20.890;2022-07-23T04:17:37;22.80;;;15.10;;
19358;SDS011;9815;52.334;20.890;2022-07-23T04:20:06;26.37;;;15.87;;
19358;SDS011;9815;52.334;20.890;2022-07-23T04:22:42;24.37;;;15.47;;
19358;SDS011;9815;52.334;20.890;2022-07-23T04:25:12;25.47;;;16.30;;
19358;SDS011;9815;52.334;20.890;2022-07-23T04:27:44;23.43;;;15.40;;
19358;SDS011;9815;52.334;20.890;2022-07-23T04:30:12;21.23;;;13.93;;
19358;SDS011;9815;52.334;20.890;2022-07-23T04:32:40;26.10;;;15.37;;
19358;SDS011;9815;52.334;20.890;2022-07-23T04:35:17;27.00;;;15.53;;
19358;SDS011;9815;52.334;20.890;2022-07-23T04:37:46;21.70;;;15.53;;
19358;SDS011;9815;52.334;20.890;2022-07-23T04:40:18;23.57;;;15.70;;
19358;SDS011;9815;52.334;20.890;2022-07-23T04:42:48;21.73;;;14.97;;
19358;SDS011;9815;52.334;20.890;2022-07-23T04:45:17;21.30;;;14.83;;
19358;SDS011;9815;52.334;20.890;2022-07-23T04:47:47;21.90;;;14.23;;
19358;SDS011;9815;52.334;20.890;2022-07-23T04:50:16;22.97;;;15.03;;
19358;SDS011;9815;52.334;20.890;2022-07-23T04:52:49;23.30;;;14.33;;
19358;SDS011;9815;52.334;20.890;2022-07-23T04:55:19;21.93;;;13.73;;
19358;SDS011;9815;52.334;20.890;2022-07-23T04:57:47;26.23;;;14.57;;
19358;SDS011;9815;52.334;20.890;2022-07-23T05:00:16;24.87;;;14.63;;
19358;SDS011;9815;52.334;20.890;2022-07-23T05:02:45;21.83;;;14.47;;
19358;SDS011;9815;52.334;20.890;2022-07-23T05:05:13;22.10;;;13.40;;
19358;SDS011;9815;52.334;20.890;2022-07-23T05:07:44;22.50;;;13.87;;
19358;SDS011;9815;52.334;20.890;2022-07-23T05:10:12;20.80;;;14.10;;
19358;SDS011;9815;52.334;20.890;2022-07-23T05:12:41;20.43;;;13.43;;
19358;SDS011;9815;52.334;20.890;2022-07-23T05:15:10;20.50;;;13.17;;
19358;SDS011;9815;52.334;20.890;2022-07-23T05:17:38;19.57;;;13.47;;
19358;SDS011;9815;52.334;20.890;2022-07-23T05:20:11;21.47;;;13.33;;
19358;SDS011;9815;52.334;20.890;2022-07-23T05:22:40;21.93;;;13.10;;
19358;SDS011;9815;52.334;20.890;2022-07-23T05:25:09;20.30;;;13.20;;
19358;SDS011;9815;52.334;20.890;2022-07-23T05:27:37;19.03;;;12.57;;
19358;SDS011;9815;52.334;20.890;2022-07-23T05:30:08;18.73;;;12.43;;
19358;SDS011;9815;52.334;20.890;2022-07-23T05:32:39;19.63;;;12.83;;
19358;SDS011;9815;52.334;20.890;2022-07-23T05:35:13;19.37;;;13.50;;
19358;SDS011;9815;52.334;20.890;2022-07-23T05:37:50;18.17;;;13.00;;
19358;SDS011;9815;52.334;20.890;2022-07-23T05:40:19;20.00;;;12.13;;
19358;SDS011;9815;52.334;20.890;2022-07-23T05:42:47;19.37;;;11.90;;
19358;SDS011;9815;52.334;20.890;2022-07-23T05:45:17;21.03;;;12.10;;
19358;SDS011;9815;52.334;20.890;2022-07-23T05:47:46;19.57;;;11.80;;
19358;SDS011;9815;52.334;20.890;2022-07-23T05:50:24;24.00;;;12.33;;
19358;SDS011;9815;52.334;20.890;2022-07-23T05:53:00;22.03;;;12.67;;
19358;SDS011;9815;52.334;20.890;2022-07-23T05:55:46;17.97;;;11.80;;
19358;SDS011;9815;52.334;20.890;2022-07-23T05:58:14;18.90;;;11.10;;
19358;SDS011;9815;52.334;20.890;2022-07-23T06:00:45;18.60;;;11.65;;
19358;SDS011;9815;52.334;20.890;2022-07-23T06:03:13;19.80;;;11.32;;
19358;SDS011;9815;52.334;20.890;2022-07-23T06:05:41;18.77;;;11.02;;
19358;SDS011;9815;52.334;20.890;2022-07-23T06:08:09;17.30;;;10.77;;
19358;SDS011;9815;52.334;20.890;2022-07-23T06:10:38;16.90;;;10.35;;
19358;SDS011;9815;52.334;20.890;2022-07-23T06:13:06;16.20;;;9.98;;
19358;SDS011;9815;52.334;20.890;2022-07-23T06:15:35;14.48;;;10.32;;
19358;SDS011;9815;52.334;20.890;2022-07-23T06:18:05;15.57;;;9.85;;
19358;SDS011;9815;52.334;20.890;2022-07-23T06:20:33;13.35;;;9.88;;
19358;SDS011;9815;52.334;20.890;2022-07-23T06:23:01;15.30;;;10.73;;
19358;SDS011;9815;52.334;20.890;2022-07-23T06:25:29;17.05;;;10.20;;
19358;SDS011;9815;52.334;20.890;2022-07-23T06:27:58;15.55;;;10.50;;
19358;SDS011;9815;52.334;20.890;2022-07-23T06:30:26;18.02;;;10.63;;
19358;SDS011;9815;52.334;20.890;2022-07-23T06:32:54;14.57;;;10.48;;
19358;SDS011;9815;52.334;20.890;2022-07-23T06:35:24;13.35;;;9.75;;
19358;SDS011;9815;52.334;20.890;2022-07-23T06:37:52;14.43;;;10.00;;
19358;SDS011;9815;52.334;20.890;2022-07-23T06:40:21;13.85;;;9.63;;
19358;SDS011;9815;52.334;20.890;2022-07-23T06:42:50;14.68;;;9.77;;
19358;SDS011;9815;52.334;20.890;2022-07-23T06:45:21;14.05;;;10.27;;
19358;SDS011;9815;52.334;20.890;2022-07-23T06:47:49;14.10;;;10.10;;
19358;SDS011;9815;52.334;20.890;2022-07-23T06:50:18;14.27;;;10.18;;
19358;SDS011;9815;52.334;20.890;2022-07-23T06:52:49;15.43;;;9.63;;
19358;SDS011;9815;52.334;20.890;2022-07-23T06:55:17;13.50;;;9.98;;
19358;SDS011;9815;52.334;20.890;2022-07-23T06:57:45;11.60;;;9.35;;
19358;SDS011;9815;52.334;20.890;2022-07-23T07:00:15;13.55;;;9.20;;
19358;SDS011;9815;52.334;20.890;2022-07-23T07:02:43;14.45;;;8.15;;
19358;SDS011;9815;52.334;20.890;2022-07-23T07:05:11;10.73;;;8.30;;
19358;SDS011;9815;52.334;20.890;2022-07-23T07:07:39;10.77;;;8.10;;
19358;SDS011;9815;52.334;20.890;2022-07-23T07:10:09;12.05;;;8.43;;
19358;SDS011;9815;52.334;20.890;2022-07-23T07:12:41;10.32;;;7.25;;
19358;SDS011;9815;52.334;20.890;2022-07-23T07:15:09;11.63;;;7.57;;
19358;SDS011;9815;52.334;20.890;2022-07-23T07:17:38;12.80;;;7.28;;
19358;SDS011;9815;52.334;20.890;2022-07-23T07:20:07;11.60;;;7.43;;
19358;SDS011;9815;52.334;20.890;2022-07-23T07:22:36;12.50;;;7.78;;
19358;SDS011;9815;52.334;20.890;2022-07-23T07:25:04;11.23;;;7.03;;
19358;SDS011;9815;52.334;20.890;2022-07-23T07:27:34;10.35;;;7.47;;
19358;SDS011;9815;52.334;20.890;2022-07-23T07:30:04;13.55;;;7.88;;
19358;SDS011;9815;52.334;20.890;2022-07-23T07:32:33;10.93;;;6.97;;
19358;SDS011;9815;52.334;20.890;2022-07-23T07:35:22;13.18;;;7.40;;
19358;SDS011;9815;52.334;20.890;2022-07-23T07:37:51;10.25;;;7.25;;
19358;SDS011;9815;52.334;20.890;2022-07-23T07:40:20;10.32;;;7.18;;
19358;SDS011;9815;52.334;20.890;2022-07-23T07:42:51;10.13;;;7.10;;
19358;SDS011;9815;52.334;20.890;2022-07-23T07:45:23;9.65;;;6.60;;
19358;SDS011;9815;52.334;20.890;2022-07-23T07:47:52;7.78;;;6.78;;
19358;SDS011;9815;52.334;20.890;2022-07-23T07:50:20;10.15;;;6.90;;
19358;SDS011;9815;52.334;20.890;2022-07-23T07:52:49;11.10;;;6.90;;
19358;SDS011;9815;52.334;20.890;2022-07-23T07:55:17;11.18;;;6.75;;
19358;SDS011;9815;52.334;20.890;2022-07-23T07:57:46;11.98;;;6.03;;
19358;SDS011;9815;52.334;20.890;2022-07-23T08:00:16;11.88;;;6.07;;
19358;SDS011;9815;52.334;20.890;2022-07-23T08:02:45;10.18;;;6.07;;
19358;SDS011;9815;52.334;20.890;2022-07-23T08:05:18;10.05;;;6.07;;
19358;SDS011;9815;52.334;20.890;2022-07-23T08:07:53;8.43;;;6.10;;
19358;SDS011;9815;52.334;20.890;2022-07-23T08:10:22;10.50;;;6.50;;
19358;SDS011;9815;52.334;20.890;2022-07-23T08:12:51;9.23;;;6.53;;
19358;SDS011;9815;52.334;20.890;2022-07-23T08:15:23;8.45;;;5.90;;
19358;SDS011;9815;52.334;20.890;2022-07-23T08:17:52;9.85;;;6.78;;
19358;SDS011;9815;52.334;20.890;2022-07-23T08:20:22;9.55;;;6.82;;
19358;SDS011;9815;52.334;20.890;2022-07-23T08:22:51;8.32;;;6.22;;
19358;SDS011;9815;52.334;20.890;2022-07-23T08:25:21;12.73;;;6.80;;
19358;SDS011;9815;52.334;20.890;2022-07-23T08:27:51;11.23;;;6.30;;
19358;SDS011;9815;52.334;20.890;2022-07-23T08:30:20;9.65;;;6.35;;
19358;SDS011;9815;52.334;20.890;2022-07-23T08:32:50;8.55;;;6.55;;
19358;SDS011;9815;52.334;20.890;2022-07-23T08:35:21;11.75;;;7.40;;
19358;SDS011;9815;52.334;20.890;2022-07-23T08:37:51;12.13;;;6.80;;
19358;SDS011;9815;52.334;20.890;2022-07-23T08:40:19;8.02;;;6.00;;
19358;SDS011;9815;52.334;20.890;2022-07-23T08:42:48;8.30;;;6.40;;
19358;SDS011;9815;52.334;20.890;2022-07-23T08:45:18;11.50;;;6.57;;
19358;SDS011;9815;52.334;20.890;2022-07-23T08:47:48;9.35;;;6.30;;
19358;SDS011;9815;52.334;20.890;2022-07-23T08:50:20;9.68;;;6.43;;
19358;SDS011;9815;52.334;20.890;2022-07-23T08:52:49;7.60;;;6.20;;
19358;SDS011;9815;52.334;20.890;2022-07-23T08:55:20;8.85;;;6.30;;
19358;SDS011;9815;52.334;20.890;2022-07-23T08:57:50;9.50;;;5.68;;
19358;SDS011;9815;52.334;20.890;2022-07-23T09:00:20;9.35;;;6.75;;
19358;SDS011;9815;52.334;20.890;2022-07-23T09:02:50;12.57;;;8.07;;
19358;SDS011;9815;52.334;20.890;2022-07-23T09:05:19;7.45;;;5.93;;
19358;SDS011;9815;52.334;20.890;2022-07-23T09:08:07;7.65;;;5.68;;
19358;SDS011;9815;52.334;20.890;2022-07-23T09:10:44;7.75;;;5.20;;
19358;SDS011;9815;52.334;20.890;2022-07-23T09:13:30;7.25;;;5.63;;
19358;SDS011;9815;52.334;20.890;2022-07-23T09:16:01;8.95;;;5.95;;
19358;SDS011;9815;52.334;20.890;2022-07-23T09:18:33;8.85;;;5.35;;
19358;SDS011;9815;52.334;20.890;2022-07-23T09:21:06;7.63;;;5.80;;
19358;SDS011;9815;52.334;20.890;2022-07-23T09:23:39;7.00;;;5.60;;
19358;SDS011;9815;52.334;20.890;2022-07-23T09:26:22;10.43;;;6.00;;
19358;SDS011;9815;52.334;20.890;2022-07-23T09:28:54;7.55;;;5.53;;
19358;SDS011;9815;52.334;20.890;2022-07-23T09:31:24;7.45;;;4.88;;
19358;SDS011;9815;52.334;20.890;2022-07-23T09:34:07;7.50;;;5.53;;
19358;SDS011;9815;52.334;20.890;2022-07-23T09:36:37;9.20;;;4.97;;
19358;SDS011;9815;52.334;20.890;2022-07-23T09:39:05;11.10;;;6.25;;
19358;SDS011;9815;52.334;20.890;2022-07-23T09:41:39;9.65;;;4.95;;
19358;SDS011;9815;52.334;20.890;2022-07-23T09:44:09;8.88;;;5.53;;
19358;SDS011;9815;52.334;20.890;2022-07-23T09:46:39;8.57;;;5.38;;
19358;SDS011;9815;52.334;20.890;2022-07-23T09:49:13;9.90;;;5.93;;
19358;SDS011;9815;52.334;20.890;2022-07-23T09:51:44;8.30;;;5.60;;
19358;SDS011;9815;52.334;20.890;2022-07-23T09:54:25;11.18;;;6.15;;
19358;SDS011;9815;52.334;20.890;2022-07-23T09:56:57;5.93;;;4.88;;
19358;SDS011;9815;52.334;20.890;2022-07-23T09:59:27;8.00;;;5.80;;
19358;SDS011;9815;52.334;20.890;2022-07-23T10:01:57;6.97;;;5.35;;
19358;SDS011;9815;52.334;20.890;2022-07-23T10:04:32;6.15;;;5.25;;
19358;SDS011;9815;52.334;20.890;2022-07-23T10:07:09;10.45;;;5.65;;
19358;SDS011;9815;52.334;20.890;2022-07-23T10:09:57;6.20;;;5.13;;
19358;SDS011;9815;52.334;20.890;2022-07-23T10:12:45;8.18;;;5.28;;
19358;SDS011;9815;52.334;20.890;2022-07-23T10:15:31;9.18;;;5.18;;
19358;SDS011;9815;52.334;20.890;2022-07-23T10:17:59;9.90;;;6.22;;
19358;SDS011;9815;52.334;20.890;2022-07-23T10:20:29;6.30;;;5.32;;
19358;SDS011;9815;52.334;20.890;2022-07-23T10:22:59;8.50;;;5.43;;
19358;SDS011;9815;52.334;20.890;2022-07-23T10:25:32;9.60;;;5.30;;
19358;SDS011;9815;52.334;20.890;2022-07-23T10:28:15;6.85;;;5.10;;
19358;SDS011;9815;52.334;20.890;2022-07-23T10:31:08;8.52;;;5.55;;
19358;SDS011;9815;52.334;20.890;2022-07-23T10:34:12;7.05;;;5.10;;
19358;SDS011;9815;52.334;20.890;2022-07-23T10:36:49;9.07;;;5.47;;
19358;SDS011;9815;52.334;20.890;2022-07-23T10:39:22;7.35;;;5.40;;
19358;SDS011;9815;52.334;20.890;2022-07-23T10:41:57;8.60;;;5.38;;
19358;SDS011;9815;52.334;20.890;2022-07-23T10:44:40;9.32;;;5.70;;
19358;SDS011;9815;52.334;20.890;2022-07-23T10:47:10;8.38;;;5.10;;
19358;SDS011;9815;52.334;20.890;2022-07-23T10:49:50;8.82;;;5.07;;
19358;SDS011;9815;52.334;20.890;2022-07-23T10:52:23;7.78;;;4.88;;
19358;SDS011;9815;52.334;20.890;2022-07-23T10:54:53;5.95;;;4.70;;
19358;SDS011;9815;52.334;20.890;2022-07-23T10:57:24;6.35;;;5.07;;
19358;SDS011;9815;52.334;20.890;2022-07-23T11:00:08;7.30;;;5.10;;
19358;SDS011;9815;52.334;20.890;2022-07-23T11:02:47;10.93;;;5.22;;
19358;SDS011;9815;52.334;20.890;2022-07-23T11:05:17;6.85;;;4.88;;
19358;SDS011;9815;52.334;20.890;2022-07-23T11:10:45;6.70;;;4.70;;
19358;SDS011;9815;52.334;20.890;2022-07-23T11:16:08;7.03;;;4.68;;
19358;SDS011;9815;52.334;20.890;2022-07-23T11:18:54;12.18;;;5.10;;
19358;SDS011;9815;52.334;20.890;2022-07-23T11:21:44;8.20;;;4.90;;
19358;SDS011;9815;52.334;20.890;2022-07-23T11:24:18;6.22;;;4.93;;
19358;SDS011;9815;52.334;20.890;2022-07-23T11:26:49;7.13;;;5.18;;
19358;SDS011;9815;52.334;20.890;2022-07-23T11:29:38;5.72;;;4.50;;
19358;SDS011;9815;52.334;20.890;2022-07-23T11:37:56;4.97;;;4.38;;
19358;SDS011;9815;52.334;20.890;2022-07-23T11:40:33;7.28;;;4.80;;
19358;SDS011;9815;52.334;20.890;2022-07-23T11:43:02;6.22;;;4.60;;
19358;SDS011;9815;52.334;20.890;2022-07-23T11:45:33;9.32;;;4.85;;
19358;SDS011;9815;52.334;20.890;2022-07-23T11:48:03;8.98;;;4.88;;
19358;SDS011;9815;52.334;20.890;2022-07-23T11:50:33;5.85;;;4.72;;
19358;SDS011;9815;52.334;20.890;2022-07-23T11:53:01;7.18;;;4.72;;
19358;SDS011;9815;52.334;20.890;2022-07-23T11:55:30;5.97;;;4.72;;
19358;SDS011;9815;52.334;20.890;2022-07-23T11:57:59;6.30;;;4.82;;
19358;SDS011;9815;52.334;20.890;2022-07-23T12:00:28;8.38;;;4.75;;
19358;SDS011;9815;52.334;20.890;2022-07-23T12:03:05;6.47;;;4.60;;
19358;SDS011;9815;52.334;20.890;2022-07-23T12:05:35;5.00;;;4.30;;
19358;SDS011;9815;52.334;20.890;2022-07-23T12:08:04;6.65;;;4.97;;
19358;SDS011;9815;52.334;20.890;2022-07-23T12:10:35;6.15;;;4.78;;
19358;SDS011;9815;52.334;20.890;2022-07-23T12:13:06;10.73;;;4.88;;
19358;SDS011;9815;52.334;20.890;2022-07-23T12:15:37;9.40;;;5.13;;
19358;SDS011;9815;52.334;20.890;2022-07-23T12:18:08;7.43;;;5.18;;
19358;SDS011;9815;52.334;20.890;2022-07-23T12:20:38;9.77;;;5.38;;
19358;SDS011;9815;52.334;20.890;2022-07-23T12:23:08;8.93;;;4.90;;
19358;SDS011;9815;52.334;20.890;2022-07-23T12:25:38;7.50;;;5.07;;
19358;SDS011;9815;52.334;20.890;2022-07-23T12:28:09;7.38;;;5.25;;
19358;SDS011;9815;52.334;20.890;2022-07-23T12:30:40;8.57;;;4.72;;
19358;SDS011;9815;52.334;20.890;2022-07-23T12:33:10;7.38;;;5.05;;
19358;SDS011;9815;52.334;20.890;2022-07-23T12:35:43;6.70;;;4.60;;
19358;SDS011;9815;52.334;20.890;2022-07-23T12:38:13;6.10;;;4.80;;
19358;SDS011;9815;52.334;20.890;2022-07-23T12:40:43;6.85;;;5.07;;
19358;SDS011;9815;52.334;20.890;2022-07-23T12:43:19;5.25;;;4.60;;
19358;SDS011;9815;52.334;20.890;2022-07-23T12:45:49;8.02;;;5.07;;
19358;SDS011;9815;52.334;20.890;2022-07-23T12:48:20;6.82;;;5.00;;
19358;SDS011;9815;52.334;20.890;2022-07-23T12:50:54;6.82;;;5.03;;
19358;SDS011;9815;52.334;20.890;2022-07-23T12:53:28;6.28;;;4.82;;
19358;SDS011;9815;52.334;20.890;2022-07-23T12:55:58;8.63;;;4.90;;
19358;SDS011;9815;52.334;20.890;2022-07-23T12:58:46;6.93;;;5.53;;
19358;SDS011;9815;52.334;20.890;2022-07-23T13:01:24;8.65;;;4.95;;
19358;SDS011;9815;52.334;20.890;2022-07-23T13:03:56;7.93;;;4.80;;
19358;SDS011;9815;52.334;20.890;2022-07-23T13:06:27;5.93;;;4.60;;
19358;SDS011;9815;52.334;20.890;2022-07-23T13:08:56;6.95;;;5.03;;
19358;SDS011;9815;52.334;20.890;2022-07-23T13:11:27;7.55;;;5.13;;
19358;SDS011;9815;52.334;20.890;2022-07-23T13:13:57;9.50;;;5.10;;
19358;SDS011;9815;52.334;20.890;2022-07-23T13:16:27;7.25;;;5.00;;
19358;SDS011;9815;52.334;20.890;2022-07-23T13:18:56;7.32;;;5.45;;
19358;SDS011;9815;52.334;20.890;2022-07-23T13:21:25;5.88;;;4.93;;
19358;SDS011;9815;52.334;20.890;2022-07-23T13:23:55;7.75;;;4.72;;
19358;SDS011;9815;52.334;20.890;2022-07-23T13:26:23;7.53;;;5.47;;
19358;SDS011;9815;52.334;20.890;2022-07-23T13:28:51;8.35;;;5.47;;
19358;SDS011;9815;52.334;20.890;2022-07-23T13:31:21;7.15;;;4.97;;
19358;SDS011;9815;52.334;20.890;2022-07-23T13:33:50;10.13;;;5.32;;
19358;SDS011;9815;52.334;20.890;2022-07-23T13:36:18;7.45;;;5.63;;
19358;SDS011;9815;52.334;20.890;2022-07-23T13:38:46;8.02;;;5.50;;
19358;SDS011;9815;52.334;20.890;2022-07-23T13:41:16;6.80;;;5.10;;
19358;SDS011;9815;52.334;20.890;2022-07-23T13:43:44;7.60;;;5.35;;
19358;SDS011;9815;52.334;20.890;2022-07-23T13:46:13;6.25;;;5.40;;
19358;SDS011;9815;52.334;20.890;2022-07-23T13:48:42;6.60;;;5.38;;
19358;SDS011;9815;52.334;20.890;2022-07-23T13:51:13;6.93;;;5.35;;
19358;SDS011;9815;52.334;20.890;2022-07-23T13:53:42;7.60;;;5.28;;
19358;SDS011;9815;52.334;20.890;2022-07-23T13:56:11;7.65;;;5.70;;
19358;SDS011;9815;52.334;20.890;2022-07-23T13:58:39;7.25;;;5.00;;
19358;SDS011;9815;52.334;20.890;2022-07-23T14:01:08;10.45;;;5.80;;
19358;SDS011;9815;52.334;20.890;2022-07-23T14:03:36;9.13;;;5.55;;
19358;SDS011;9815;52.334;20.890;2022-07-23T14:06:06;8.18;;;5.32;;
19358;SDS011;9815;52.334;20.890;2022-07-23T14:08:42;7.65;;;5.30;;
19358;SDS011;9815;52.334;20.890;2022-07-23T14:11:11;7.47;;;5.60;;
19358;SDS011;9815;52.334;20.890;2022-07-23T14:13:39;7.15;;;5.45;;
19358;SDS011;9815;52.334;20.890;2022-07-23T14:16:08;8.82;;;5.47;;
19358;SDS011;9815;52.334;20.890;2022-07-23T14:18:36;7.85;;;6.03;;
19358;SDS011;9815;52.334;20.890;2022-07-23T14:21:04;8.18;;;5.22;;
19358;SDS011;9815;52.334;20.890;2022-07-23T14:23:34;6.75;;;5.70;;
19358;SDS011;9815;52.334;20.890;2022-07-23T14:26:03;31.05;;;19.98;;
19358;SDS011;9815;52.334;20.890;2022-07-23T14:28:34;8.77;;;5.53;;
19358;SDS011;9815;52.334;20.890;2022-07-23T14:31:05;7.28;;;5.60;;
19358;SDS011;9815;52.334;20.890;2022-07-23T14:33:46;8.10;;;5.30;;
19358;SDS011;9815;52.334;20.890;2022-07-23T14:36:15;9.82;;;5.03;;
19358;SDS011;9815;52.334;20.890;2022-07-23T14:38:45;17.27;;;5.53;;
19358;SDS011;9815;52.334;20.890;2022-07-23T14:41:13;8.77;;;4.68;;
19358;SDS011;9815;52.334;20.890;2022-07-23T14:43:42;17.75;;;5.25;;
19358;SDS011;9815;52.334;20.890;2022-07-23T14:46:11;21.70;;;5.63;;
19358;SDS011;9815;52.334;20.890;2022-07-23T14:48:40;15.48;;;6.00;;
19358;SDS011;9815;52.334;20.890;2022-07-23T14:51:08;14.13;;;6.15;;
19358;SDS011;9815;52.334;20.890;2022-07-23T14:53:37;16.80;;;8.43;;
19358;SDS011;9815;52.334;20.890;2022-07-23T14:56:07;14.23;;;8.47;;
19358;SDS011;9815;52.334;20.890;2022-07-23T14:58:35;20.43;;;9.30;;
19358;SDS011;9815;52.334;20.890;2022-07-23T15:01:03;20.20;;;10.10;;
19358;SDS011;9815;52.334;20.890;2022-07-23T15:03:32;24.83;;;11.27;;
19358;SDS011;9815;52.334;20.890;2022-07-23T15:06:08;21.73;;;10.17;;